createdAt,value
2017-10-07T00:01:12.654Z,52.80
2017-10-07T00:03:40.271Z,52.70
2017-10-07T00:06:07.788Z,52.60
2017-10-07T00:08:35.315Z,52.80
2017-10-07T00:11:02.814Z,52.80
2017-10-07T00:13:30.500Z,52.70
2017-10-07T00:15:57.995Z,52.70
2017-10-07T00:18:25.523Z,52.60
2017-10-07T00:20:53.088Z,52.70
2017-10-07T00:23:20.591Z,52.70
2017-10-07T00:25:48.846Z,52.80
2017-10-07T00:28:16.349Z,52.70
2017-10-07T00:30:43.859Z,52.60
2017-10-07T00:33:11.364Z,52.70
2017-10-07T00:35:38.983Z,52.70
2017-10-07T00:38:06.664Z,52.70
2017-10-07T00:40:34.149Z,52.60
2017-10-07T00:43:01.864Z,52.70
2017-10-07T00:45:30.144Z,52.70
2017-10-07T00:47:57.707Z,52.60
2017-10-07T00:50:25.367Z,52.80
2017-10-07T00:52:52.863Z,52.80
2017-10-07T00:55:20.355Z,52.70
2017-10-07T00:57:48.626Z,52.70
2017-10-07T01:00:16.902Z,52.60
2017-10-07T01:02:45.172Z,52.70
2017-10-07T01:05:13.455Z,52.70
2017-10-07T01:07:41.727Z,52.80
2017-10-07T01:10:10.211Z,52.70
2017-10-07T01:12:38.486Z,52.70
2017-10-07T01:15:06.055Z,52.70
2017-10-07T01:17:33.569Z,52.70
2017-10-07T01:20:01.078Z,52.70
2017-10-07T01:22:28.631Z,52.70
2017-10-07T01:24:56.142Z,52.70
2017-10-07T01:27:23.647Z,52.70
2017-10-07T01:29:51.206Z,52.70
2017-10-07T01:32:18.723Z,52.80
2017-10-07T01:34:47.122Z,52.70
2017-10-07T01:37:14.631Z,52.70
2017-10-07T01:39:42.134Z,52.70
2017-10-07T01:42:09.647Z,52.70
2017-10-07T01:44:37.930Z,52.70
2017-10-07T01:47:05.430Z,52.70
2017-10-07T01:49:32.943Z,52.70
2017-10-07T01:52:00.438Z,52.70
2017-10-07T01:54:27.991Z,52.70
2017-10-07T01:56:55.540Z,52.70
2017-10-07T01:59:23.031Z,52.70
2017-10-07T02:01:50.570Z,52.70
2017-10-07T02:04:18.067Z,52.70
2017-10-07T02:06:46.343Z,52.80
2017-10-07T02:09:14.615Z,52.70
2017-10-07T02:11:42.888Z,52.80
2017-10-07T02:14:11.168Z,52.70
2017-10-07T02:16:39.604Z,52.70
2017-10-07T02:19:07.130Z,52.70
2017-10-07T02:21:34.631Z,52.70
2017-10-07T02:24:02.198Z,52.70
2017-10-07T02:26:29.699Z,52.70
2017-10-07T02:28:57.227Z,52.60
2017-10-07T02:31:24.722Z,52.60
2017-10-07T02:33:52.223Z,52.70
2017-10-07T02:36:20.488Z,52.70
2017-10-07T02:38:47.991Z,52.70
2017-10-07T02:41:15.555Z,52.70
2017-10-07T02:43:43.181Z,52.70
2017-10-07T02:46:10.690Z,52.70
2017-10-07T02:48:38.183Z,52.70
2017-10-07T02:51:06.458Z,52.70
2017-10-07T02:53:34.718Z,52.70
2017-10-07T02:56:02.236Z,52.70
2017-10-07T02:58:29.748Z,52.20
2017-10-07T03:00:57.247Z,52.60
2017-10-07T03:03:24.751Z,52.70
2017-10-07T03:05:53.028Z,52.80
2017-10-07T03:08:21.286Z,52.80
2017-10-07T03:10:49.562Z,52.50
2017-10-07T03:13:17.835Z,52.80
2017-10-07T03:15:45.428Z,52.70
2017-10-07T03:18:12.930Z,52.80
2017-10-07T03:20:40.583Z,52.70
2017-10-07T03:23:08.082Z,53.20
2017-10-07T03:25:35.639Z,52.70
2017-10-07T03:28:03.329Z,52.70
2017-10-07T03:30:30.831Z,52.70
2017-10-07T03:32:59.102Z,52.70
2017-10-07T03:35:27.375Z,52.70
2017-10-07T03:37:55.637Z,52.70
2017-10-07T03:40:23.142Z,52.70
2017-10-07T03:42:50.643Z,52.40
2017-10-07T03:45:18.135Z,52.60
2017-10-07T03:47:45.647Z,52.70
2017-10-07T03:50:13.146Z,52.60
2017-10-07T03:52:40.713Z,52.70
2017-10-07T03:55:08.210Z,52.70
2017-10-07T03:57:35.723Z,52.70
2017-10-07T04:00:03.222Z,52.80
2017-10-07T04:02:30.732Z,52.70
2017-10-07T04:04:58.227Z,52.70
2017-10-07T04:07:25.727Z,52.60
2017-10-07T04:09:53.348Z,52.70
2017-10-07T04:12:20.980Z,52.70
2017-10-07T04:14:48.498Z,52.60
2017-10-07T04:17:16.094Z,52.70
2017-10-07T04:19:43.595Z,52.70
2017-10-07T04:22:11.862Z,52.70
2017-10-07T04:24:40.166Z,52.70
2017-10-07T04:27:07.932Z,52.70
2017-10-07T04:29:35.593Z,52.60
2017-10-07T04:32:03.099Z,52.60
2017-10-07T04:34:30.619Z,52.50
2017-10-07T04:36:58.373Z,52.50
2017-10-07T04:39:25.906Z,52.50
2017-10-07T04:41:53.495Z,52.40
2017-10-07T04:44:20.999Z,52.60
2017-10-07T04:46:49.266Z,52.50
2017-10-07T04:49:17.542Z,52.80
2017-10-07T04:51:45.915Z,52.60
2017-10-07T04:54:13.447Z,52.50
2017-10-07T04:56:41.071Z,52.50
2017-10-07T04:59:08.570Z,52.50
2017-10-07T05:01:36.063Z,52.40
2017-10-07T05:04:03.579Z,52.50
2017-10-07T05:06:31.079Z,52.50
2017-10-07T05:08:58.594Z,52.60
2017-10-07T05:11:26.196Z,52.50
2017-10-07T05:13:53.848Z,52.50
2017-10-07T05:16:21.348Z,52.50
2017-10-07T05:18:48.868Z,52.50
2017-10-07T05:21:16.367Z,52.40
2017-10-07T05:23:43.891Z,52.50
2017-10-07T05:26:11.554Z,52.40
2017-10-07T05:28:39.179Z,52.40
2017-10-07T05:31:06.842Z,52.40
2017-10-07T05:33:34.471Z,52.40
2017-10-07T05:36:01.992Z,52.30
2017-10-07T05:38:29.522Z,52.40
2017-10-07T05:40:57.010Z,52.50
2017-10-07T05:43:24.531Z,52.40
2017-10-07T05:45:52.194Z,52.40
2017-10-07T05:48:19.703Z,52.40
2017-10-07T05:50:47.994Z,52.50
2017-10-07T05:53:16.272Z,52.40
2017-10-07T05:55:43.767Z,52.40
2017-10-07T05:58:11.302Z,52.40
2017-10-07T06:00:38.822Z,52.40
2017-10-07T06:03:07.103Z,52.40
2017-10-07T06:05:35.379Z,52.40
2017-10-07T06:08:03.651Z,52.50
2017-10-07T06:10:31.923Z,52.50
2017-10-07T06:13:00.204Z,52.40
2017-10-07T06:15:27.713Z,52.40
2017-10-07T06:17:55.222Z,52.30
2017-10-07T06:20:22.729Z,52.40
2017-10-07T06:22:50.239Z,52.40
2017-10-07T06:25:17.742Z,52.40
2017-10-07T06:27:45.251Z,52.40
2017-10-07T06:30:12.751Z,52.30
2017-10-07T06:32:40.293Z,52.40
2017-10-07T06:35:07.843Z,52.30
2017-10-07T06:37:35.350Z,52.30
2017-10-07T06:40:03.631Z,52.30
2017-10-07T06:42:31.155Z,52.30
2017-10-07T06:44:58.847Z,52.30
2017-10-07T06:47:26.343Z,52.30
2017-10-07T06:49:53.852Z,52.30
2017-10-07T06:52:21.354Z,52.40
2017-10-07T06:54:48.868Z,52.40
2017-10-07T06:57:16.373Z,52.40
2017-10-07T06:59:43.900Z,52.30
2017-10-07T07:02:11.406Z,52.30
2017-10-07T07:04:38.927Z,52.30
2017-10-07T07:07:06.445Z,52.60
2017-10-07T07:09:33.967Z,52.30
2017-10-07T07:12:01.603Z,52.20
2017-10-07T07:14:29.105Z,52.30
2017-10-07T07:16:57.379Z,52.30
2017-10-07T07:19:24.886Z,52.20
2017-10-07T07:21:52.431Z,52.20
2017-10-07T07:24:19.940Z,52.20
2017-10-07T07:26:48.217Z,52.30
2017-10-07T07:29:15.725Z,52.20
2017-10-07T07:31:43.234Z,52.20
2017-10-07T07:34:10.741Z,52.20
2017-10-07T07:36:38.249Z,52.10
2017-10-07T07:39:05.930Z,52.10
2017-10-07T07:41:33.543Z,52.00
2017-10-07T07:44:01.047Z,52.00
2017-10-07T07:46:28.607Z,52.10
2017-10-07T07:48:56.115Z,52.00
2017-10-07T07:51:24.390Z,51.90
2017-10-07T07:53:51.906Z,51.90
2017-10-07T07:56:19.411Z,51.90
2017-10-07T07:58:46.919Z,51.90
2017-10-07T08:01:14.538Z,52.10
2017-10-07T08:03:42.038Z,52.10
2017-10-07T08:06:09.551Z,51.90
2017-10-07T08:08:37.055Z,51.90
2017-10-07T08:11:04.563Z,52.00
2017-10-07T08:13:32.075Z,52.00
2017-10-07T08:16:00.351Z,52.10
2017-10-07T08:18:28.619Z,52.00
2017-10-07T08:20:56.110Z,51.90
2017-10-07T08:23:23.710Z,52.00
2017-10-07T08:25:51.202Z,52.10
2017-10-07T08:28:19.474Z,52.00
2017-10-07T08:30:47.747Z,52.20
2017-10-07T08:33:15.345Z,52.10
2017-10-07T08:35:42.966Z,52.10
2017-10-07T08:38:10.475Z,52.10
2017-10-07T08:40:38.299Z,52.00
2017-10-07T08:43:05.795Z,52.10
2017-10-07T08:45:33.316Z,52.10
2017-10-07T08:48:00.875Z,52.10
2017-10-07T08:50:28.396Z,52.10
2017-10-07T08:52:55.891Z,52.10
2017-10-07T08:55:23.387Z,52.00
2017-10-07T08:57:50.907Z,52.10
2017-10-07T09:00:18.535Z,52.10
2017-10-07T09:02:46.031Z,52.00
2017-10-07T09:05:13.651Z,52.10
2017-10-07T09:07:41.187Z,52.10
2017-10-07T09:10:09.463Z,52.10
2017-10-07T09:12:37.738Z,52.10
2017-10-07T09:15:06.015Z,52.10
2017-10-07T09:17:33.539Z,52.10
2017-10-07T09:20:01.239Z,52.20
2017-10-07T09:22:28.759Z,52.20
2017-10-07T09:24:56.282Z,52.00
2017-10-07T09:27:23.780Z,52.10
2017-10-07T09:29:51.470Z,52.10
2017-10-07T09:32:19.129Z,52.10
2017-10-07T09:34:46.655Z,52.00
2017-10-07T09:37:14.927Z,51.90
2017-10-07T09:39:43.222Z,51.90
2017-10-07T09:42:10.872Z,51.90
2017-10-07T09:44:38.367Z,52.00
2017-10-07T09:47:05.887Z,52.00
2017-10-07T09:49:33.550Z,51.90
2017-10-07T09:52:01.216Z,51.90
2017-10-07T09:54:28.711Z,52.00
2017-10-07T09:56:56.275Z,52.00
2017-10-07T09:59:25.291Z,52.00
2017-10-07T10:01:53.571Z,52.40
2017-10-07T10:04:21.879Z,52.00
2017-10-07T10:06:49.443Z,52.00
2017-10-07T10:09:17.096Z,51.90
2017-10-07T10:11:44.726Z,52.00
2017-10-07T10:14:12.392Z,52.00
2017-10-07T10:16:39.915Z,51.90
2017-10-07T10:19:08.199Z,52.00
2017-10-07T10:21:36.479Z,51.90
2017-10-07T10:24:04.027Z,51.90
2017-10-07T10:26:31.523Z,52.10
2017-10-07T10:28:59.079Z,52.10
2017-10-07T10:31:26.635Z,52.10
2017-10-07T10:33:54.163Z,52.10
2017-10-07T10:36:21.723Z,52.10
2017-10-07T10:38:49.243Z,52.10
2017-10-07T10:41:17.687Z,52.10
2017-10-07T10:43:45.191Z,52.10
2017-10-07T10:46:13.470Z,52.20
2017-10-07T10:48:41.737Z,52.20
2017-10-07T10:51:10.039Z,52.20
2017-10-07T10:53:37.611Z,52.20
2017-10-07T10:56:05.129Z,52.10
2017-10-07T10:58:33.402Z,52.20
2017-10-07T11:01:02.022Z,52.30
2017-10-07T11:03:29.523Z,52.20
2017-10-07T11:05:57.800Z,52.20
2017-10-07T11:08:26.070Z,52.20
2017-10-07T11:10:54.346Z,52.30
2017-10-07T11:13:22.827Z,52.80
2017-10-07T11:15:51.238Z,52.40
2017-10-07T11:18:18.899Z,52.30
2017-10-07T11:20:46.399Z,52.20
2017-10-07T11:23:13.922Z,52.30
2017-10-07T11:25:41.478Z,52.90
2017-10-07T11:28:09.106Z,52.30
2017-10-07T11:30:36.607Z,52.30
2017-10-07T11:33:04.124Z,52.30
2017-10-07T11:35:31.635Z,52.30
2017-10-07T11:37:59.174Z,52.30
2017-10-07T11:40:26.671Z,52.30
2017-10-07T11:42:54.965Z,52.20
2017-10-07T11:45:22.463Z,52.20
2017-10-07T11:47:49.994Z,52.30
2017-10-07T11:50:17.506Z,52.30
2017-10-07T11:52:45.808Z,52.30
2017-10-07T11:55:13.307Z,52.30
2017-10-07T11:57:40.831Z,52.30
2017-10-07T12:00:08.323Z,52.30
2017-10-07T12:02:35.967Z,52.30
2017-10-07T12:05:03.475Z,52.30
2017-10-07T12:07:31.080Z,52.10
2017-10-07T12:09:58.596Z,52.10
2017-10-07T12:12:26.119Z,52.10
2017-10-07T12:14:53.626Z,52.20
2017-10-07T12:17:21.153Z,52.30
2017-10-07T12:19:48.662Z,52.10
2017-10-07T12:22:16.206Z,52.10
2017-10-07T12:24:43.712Z,52.10
2017-10-07T12:27:11.254Z,52.20
2017-10-07T12:29:38.950Z,52.30
2017-10-07T12:32:06.465Z,52.30
2017-10-07T12:34:34.734Z,52.20
2017-10-07T12:37:03.011Z,52.30
2017-10-07T12:39:31.304Z,52.20
2017-10-07T12:41:58.812Z,52.20
2017-10-07T12:44:26.344Z,52.20
2017-10-07T12:46:53.985Z,52.30
2017-10-07T12:49:21.510Z,52.10
2017-10-07T12:51:49.771Z,52.10
2017-10-07T12:54:17.299Z,52.10
2017-10-07T12:56:44.799Z,52.10
2017-10-07T12:59:12.321Z,52.30
2017-10-07T13:01:39.815Z,52.30
2017-10-07T13:04:07.607Z,52.30
2017-10-07T13:06:35.128Z,52.30
2017-10-07T13:09:03.404Z,52.40
2017-10-07T13:11:31.676Z,52.30
2017-10-07T13:13:59.952Z,52.20
2017-10-07T13:16:27.555Z,52.20
2017-10-07T13:18:55.059Z,52.20
2017-10-07T13:21:23.348Z,52.30
2017-10-07T13:23:51.119Z,52.20
2017-10-07T13:26:18.642Z,52.20
2017-10-07T13:28:46.916Z,52.40
2017-10-07T13:31:14.506Z,52.20
2017-10-07T13:33:42.002Z,52.30
2017-10-07T13:36:09.525Z,52.20
2017-10-07T13:38:37.081Z,52.20
2017-10-07T13:41:04.611Z,52.10
2017-10-07T13:43:32.108Z,52.20
2017-10-07T13:45:59.843Z,52.20
2017-10-07T13:48:27.336Z,52.10
2017-10-07T13:50:54.952Z,52.10
2017-10-07T13:53:22.613Z,52.20
2017-10-07T13:55:50.116Z,52.30
2017-10-07T13:58:17.726Z,52.20
2017-10-07T14:00:45.227Z,52.10
2017-10-07T14:03:12.743Z,52.10
2017-10-07T14:05:40.251Z,52.10
2017-10-07T14:08:08.770Z,52.00
2017-10-07T14:10:36.263Z,52.60
2017-10-07T14:13:03.883Z,52.10
2017-10-07T14:15:31.508Z,52.00
2017-10-07T14:17:59.199Z,52.20
2017-10-07T14:20:26.857Z,52.20
2017-10-07T14:22:54.503Z,52.30
2017-10-07T14:25:22.011Z,52.30
2017-10-07T14:27:49.507Z,52.20
2017-10-07T14:30:17.095Z,52.20
2017-10-07T14:32:44.599Z,52.30
2017-10-07T14:35:12.894Z,52.20
2017-10-07T14:37:40.402Z,52.20
2017-10-07T14:40:07.948Z,52.20
2017-10-07T14:42:35.454Z,52.20
2017-10-07T14:45:02.990Z,52.10
2017-10-07T14:47:30.494Z,52.10
2017-10-07T14:49:58.135Z,52.20
2017-10-07T14:52:26.542Z,52.10
2017-10-07T14:54:54.123Z,52.20
2017-10-07T14:57:21.615Z,52.20
2017-10-07T14:59:49.191Z,52.30
2017-10-07T15:02:16.707Z,52.30
2017-10-07T15:04:44.991Z,52.30
2017-10-07T15:07:12.501Z,52.30
2017-10-07T15:09:40.040Z,52.30
2017-10-07T15:12:07.566Z,52.30
2017-10-07T15:14:35.091Z,52.30
2017-10-07T15:17:04.223Z,52.20
2017-10-07T15:19:31.763Z,52.20
2017-10-07T15:22:00.058Z,52.40
2017-10-07T15:24:27.573Z,52.30
2017-10-07T15:26:55.129Z,52.40
2017-10-07T15:29:22.699Z,52.40
2017-10-07T15:31:50.399Z,52.30
2017-10-07T15:34:17.891Z,52.30
2017-10-07T15:36:45.399Z,52.20
2017-10-07T15:39:12.972Z,52.30
2017-10-07T15:41:40.494Z,52.20
2017-10-07T15:44:08.055Z,52.40
2017-10-07T15:46:35.547Z,52.40
2017-10-07T15:49:03.073Z,52.40
2017-10-07T15:51:30.839Z,52.40
2017-10-07T15:53:58.511Z,52.40
2017-10-07T15:56:26.015Z,52.30
2017-10-07T15:58:54.294Z,52.40
2017-10-07T16:01:23.531Z,52.50
2017-10-07T16:03:51.051Z,52.40
2017-10-07T16:06:20.351Z,52.40
2017-10-07T16:08:47.878Z,52.30
2017-10-07T16:11:15.404Z,52.30
2017-10-07T16:13:42.931Z,52.30
2017-10-07T16:16:10.442Z,52.30
2017-10-07T16:18:39.608Z,52.40
2017-10-07T16:21:07.111Z,52.40
2017-10-07T16:23:35.389Z,52.40
2017-10-07T16:26:03.664Z,52.30
2017-10-07T16:28:32.129Z,52.40
2017-10-07T16:31:00.399Z,52.40
2017-10-07T16:33:28.668Z,52.30
2017-10-07T16:35:56.260Z,52.30
2017-10-07T16:38:23.766Z,52.30
2017-10-07T16:40:51.299Z,52.40
2017-10-07T16:43:18.815Z,52.30
2017-10-07T16:45:46.330Z,52.40
2017-10-07T16:48:13.955Z,52.30
2017-10-07T16:50:41.479Z,52.30
2017-10-07T16:53:09.760Z,52.30
2017-10-07T16:55:37.338Z,52.30
2017-10-07T16:58:04.831Z,52.30
2017-10-07T17:00:32.326Z,52.30
2017-10-07T17:02:59.835Z,52.30
2017-10-07T17:05:27.364Z,52.30
2017-10-07T17:07:54.861Z,52.20
2017-10-07T17:10:22.487Z,52.30
2017-10-07T17:12:50.010Z,52.80
2017-10-07T17:15:17.582Z,52.20
2017-10-07T17:17:45.103Z,52.20
2017-10-07T17:20:12.674Z,52.30
2017-10-07T17:22:40.299Z,52.30
2017-10-07T17:25:07.811Z,52.40
2017-10-07T17:27:35.354Z,52.30
2017-10-07T17:30:03.104Z,52.20
2017-10-07T17:32:30.598Z,52.20
2017-10-07T17:34:58.100Z,52.20
2017-10-07T17:37:26.410Z,52.20
2017-10-07T17:39:53.947Z,52.20
2017-10-07T17:42:21.460Z,52.20
2017-10-07T17:44:48.986Z,52.10
2017-10-07T17:47:16.494Z,52.20
2017-10-07T17:49:44.183Z,52.80
2017-10-07T17:52:11.827Z,52.30
2017-10-07T17:54:39.366Z,52.30
2017-10-07T17:57:07.643Z,52.20
2017-10-07T17:59:35.960Z,52.20
2017-10-07T18:02:03.482Z,52.20
2017-10-07T18:04:30.987Z,52.10
2017-10-07T18:06:58.482Z,52.10
2017-10-07T18:09:26.745Z,52.20
2017-10-07T18:11:55.036Z,52.20
2017-10-07T18:14:22.551Z,52.10
2017-10-07T18:16:50.075Z,52.10
2017-10-07T18:19:17.573Z,52.20
2017-10-07T18:21:45.874Z,52.50
2017-10-07T18:24:13.459Z,52.20
2017-10-07T18:26:40.993Z,52.20
2017-10-07T18:29:08.578Z,52.10
2017-10-07T18:31:36.117Z,52.10
2017-10-07T18:34:03.672Z,52.10
2017-10-07T18:36:31.202Z,52.00
2017-10-07T18:38:59.546Z,52.20
2017-10-07T18:41:27.272Z,52.20
2017-10-07T18:43:54.920Z,52.10
2017-10-07T18:46:22.429Z,52.20
2017-10-07T18:48:50.028Z,52.20
2017-10-07T18:51:17.550Z,52.10
2017-10-07T18:53:45.831Z,52.50
2017-10-07T18:56:14.102Z,52.20
2017-10-07T18:58:42.382Z,52.20
2017-10-07T19:01:10.655Z,52.10
2017-10-07T19:03:38.935Z,52.30
2017-10-07T19:06:06.527Z,52.20
2017-10-07T19:08:34.055Z,52.10
2017-10-07T19:11:01.571Z,52.20
2017-10-07T19:13:30.611Z,52.20
2017-10-07T19:15:58.134Z,52.20
2017-10-07T19:18:25.681Z,52.20
2017-10-07T19:20:53.184Z,52.10
2017-10-07T19:23:20.771Z,52.20
2017-10-07T19:25:48.271Z,52.10
2017-10-07T19:28:15.957Z,52.10
2017-10-07T19:30:43.495Z,52.10
2017-10-07T19:33:11.079Z,52.10
2017-10-07T19:35:38.631Z,52.20
2017-10-07T19:38:06.134Z,52.00
2017-10-07T19:40:33.626Z,52.00
2017-10-07T19:43:01.187Z,52.10
2017-10-07T19:45:28.836Z,52.00
2017-10-07T19:47:56.500Z,52.00
2017-10-07T19:50:24.034Z,52.00
2017-10-07T19:52:51.551Z,51.90
2017-10-07T19:55:19.259Z,52.00
2017-10-07T19:57:46.950Z,52.00
2017-10-07T20:00:14.479Z,52.00
2017-10-07T20:02:41.995Z,52.00
2017-10-07T20:05:09.705Z,52.00
2017-10-07T20:07:37.215Z,52.10
2017-10-07T20:10:04.813Z,52.00
2017-10-07T20:12:32.302Z,51.90
2017-10-07T20:14:59.803Z,52.00
2017-10-07T20:17:27.299Z,52.00
2017-10-07T20:19:54.848Z,52.00
2017-10-07T20:22:22.496Z,51.90
2017-10-07T20:24:50.000Z,51.90
2017-10-07T20:27:17.527Z,52.00
2017-10-07T20:29:45.023Z,52.00
2017-10-07T20:32:12.618Z,52.00
2017-10-07T20:34:40.199Z,52.00
2017-10-07T20:37:07.742Z,51.90
2017-10-07T20:39:35.259Z,52.00
2017-10-07T20:42:02.767Z,52.00
2017-10-07T20:44:30.276Z,52.00
2017-10-07T20:46:57.803Z,52.00
2017-10-07T20:49:25.343Z,52.00
2017-10-07T20:51:52.839Z,52.00
2017-10-07T20:54:20.379Z,51.90
2017-10-07T20:56:47.900Z,52.00
2017-10-07T20:59:15.427Z,52.00
2017-10-07T21:01:42.984Z,52.00
2017-10-07T21:04:10.633Z,52.00
2017-10-07T21:06:38.131Z,51.90
2017-10-07T21:09:05.650Z,52.00
2017-10-07T21:11:33.312Z,51.90
2017-10-07T21:14:00.905Z,52.00
2017-10-07T21:16:28.399Z,52.00
2017-10-07T21:18:56.691Z,52.00
2017-10-07T21:21:24.248Z,51.90
2017-10-07T21:23:51.772Z,52.00
2017-10-07T21:26:20.048Z,52.00
2017-10-07T21:28:48.357Z,52.00
2017-10-07T21:31:15.853Z,52.00
2017-10-07T21:33:45.003Z,52.00
2017-10-07T21:36:12.663Z,52.00
2017-10-07T21:38:40.171Z,51.90
2017-10-07T21:41:07.678Z,51.90
2017-10-07T21:43:35.235Z,52.00
2017-10-07T21:46:02.884Z,51.90
2017-10-07T21:48:30.459Z,51.90
2017-10-07T21:50:58.015Z,52.00
2017-10-07T21:53:26.543Z,52.00
2017-10-07T21:55:54.827Z,52.00
2017-10-07T21:58:23.103Z,52.00
2017-10-07T22:00:50.610Z,52.00
2017-10-07T22:03:18.122Z,51.90
2017-10-07T22:05:45.659Z,52.00
2017-10-07T22:08:13.936Z,51.90
2017-10-07T22:10:42.211Z,51.90
2017-10-07T22:13:10.489Z,51.90
2017-10-07T22:15:38.001Z,51.90
2017-10-07T22:18:05.543Z,51.90
2017-10-07T22:20:33.037Z,52.00
2017-10-07T22:23:01.347Z,51.90
2017-10-07T22:25:28.911Z,51.80
2017-10-07T22:27:56.459Z,51.90
2017-10-07T22:30:23.960Z,51.90
2017-10-07T22:32:51.523Z,51.90
2017-10-07T22:35:19.034Z,51.90
2017-10-07T22:37:46.550Z,52.10
2017-10-07T22:40:14.058Z,51.90
2017-10-07T22:42:41.576Z,51.90
2017-10-07T22:45:09.078Z,51.80
2017-10-07T22:47:36.570Z,51.90
2017-10-07T22:50:04.096Z,51.90
2017-10-07T22:52:31.611Z,51.80
2017-10-07T22:54:59.140Z,51.80
2017-10-07T22:57:26.630Z,51.70
2017-10-07T22:59:54.155Z,51.80
2017-10-07T23:02:22.431Z,51.70
2017-10-07T23:04:50.031Z,51.70
2017-10-07T23:07:17.667Z,51.70
2017-10-07T23:09:45.183Z,51.70
2017-10-07T23:12:14.407Z,51.70
2017-10-07T23:14:41.918Z,51.70
2017-10-07T23:17:09.427Z,51.70
2017-10-07T23:19:36.922Z,51.80
2017-10-07T23:22:04.651Z,51.80
2017-10-07T23:24:32.282Z,51.80
2017-10-07T23:26:59.807Z,51.80
2017-10-07T23:29:27.427Z,51.70
2017-10-07T23:31:55.066Z,51.80
2017-10-07T23:34:22.559Z,51.80
2017-10-07T23:36:50.083Z,51.70
2017-10-07T23:39:17.604Z,51.70
2017-10-07T23:41:45.291Z,51.70
2017-10-07T23:44:12.786Z,51.80
2017-10-07T23:46:40.374Z,51.80
2017-10-07T23:49:07.875Z,51.70
2017-10-07T23:51:35.370Z,51.70
2017-10-07T23:54:02.894Z,51.80
2017-10-07T23:56:30.386Z,51.80
2017-10-07T23:58:57.919Z,51.90
